sensor_id;sensor_type;location;lat;lon;timestamp;temperature;humidity
13682;DHT22;6913;49.892;7.936;2022-12-07T00:01:28;2.40;99.90
13682;DHT22;6913;49.892;7.936;2022-12-07T00:03:58;2.50;99.90
13682;DHT22;6913;49.892;7.936;2022-12-07T00:06:30;2.30;99.90
13682;DHT22;6913;49.892;7.936;2022-12-07T00:08:57;2.20;99.90
13682;DHT22;6913;49.892;7.936;2022-12-07T00:11:25;2.10;99.90
13682;DHT22;6913;49.892;7.936;2022-12-07T00:13:53;2.20;99.90
13682;DHT22;6913;49.892;7.936;2022-12-07T00:16:22;2.20;99.90
13682;DHT22;6913;49.892;7.936;2022-12-07T00:18:49;2.30;99.90
13682;DHT22;6913;49.892;7.936;2022-12-07T00:21:19;2.30;99.90
13682;DHT22;6913;49.892;7.936;2022-12-07T00:23:47;2.40;99.90
13682;DHT22;6913;49.892;7.936;2022-12-07T00:26:16;2.50;99.90
13682;DHT22;6913;49.892;7.936;2022-12-07T00:28:45;2.40;99.90
13682;DHT22;6913;49.892;7.936;2022-12-07T00:31:13;2.50;99.90
13682;DHT22;6913;49.892;7.936;2022-12-07T00:33:40;2.50;99.90
13682;DHT22;6913;49.892;7.936;2022-12-07T00:36:09;2.60;99.90
13682;DHT22;6913;49.892;7.936;2022-12-07T00:38:38;2.60;99.90
13682;DHT22;6913;49.892;7.936;2022-12-07T00:41:07;2.60;99.90
13682;DHT22;6913;49.892;7.936;2022-12-07T00:43:34;2.60;99.90
13682;DHT22;6913;49.892;7.936;2022-12-07T00:46:00;2.60;99.90
13682;DHT22;6913;49.892;7.936;2022-12-07T00:48:27;2.60;99.90
13682;DHT22;6913;49.892;7.936;2022-12-07T00:50:54;2.60;99.90
13682;DHT22;6913;49.892;7.936;2022-12-07T00:53:21;2.60;99.90
13682;DHT22;6913;49.892;7.936;2022-12-07T00:55:49;2.60;99.90
13682;DHT22;6913;49.892;7.936;2022-12-07T00:58:18;2.60;99.90
13682;DHT22;6913;49.892;7.936;2022-12-07T01:00:45;2.60;99.90
13682;DHT22;6913;49.892;7.936;2022-12-07T01:03:16;2.60;99.90
13682;DHT22;6913;49.892;7.936;2022-12-07T01:05:49;2.60;99.90
13682;DHT22;6913;49.892;7.936;2022-12-07T01:08:17;2.60;99.90
13682;DHT22;6913;49.892;7.936;2022-12-07T01:10:44;2.40;99.90
13682;DHT22;6913;49.892;7.936;2022-12-07T01:13:12;2.30;99.90
13682;DHT22;6913;49.892;7.936;2022-12-07T01:15:39;2.30;99.90
13682;DHT22;6913;49.892;7.936;2022-12-07T01:18:06;2.60;99.90
13682;DHT22;6913;49.892;7.936;2022-12-07T01:20:33;2.40;99.90
13682;DHT22;6913;49.892;7.936;2022-12-07T01:23:00;2.40;99.90
13682;DHT22;6913;49.892;7.936;2022-12-07T01:25:27;2.40;99.90
13682;DHT22;6913;49.892;7.936;2022-12-07T01:27:54;2.40;99.90
13682;DHT22;6913;49.892;7.936;2022-12-07T01:30:22;2.40;99.90
13682;DHT22;6913;49.892;7.936;2022-12-07T01:32:49;2.40;99.90
13682;DHT22;6913;49.892;7.936;2022-12-07T01:35:16;2.40;99.90
13682;DHT22;6913;49.892;7.936;2022-12-07T01:37:43;2.30;99.90
13682;DHT22;6913;49.892;7.936;2022-12-07T01:40:10;2.20;99.90
13682;DHT22;6913;49.892;7.936;2022-12-07T01:42:37;2.30;99.90
13682;DHT22;6913;49.892;7.936;2022-12-07T01:48:14;2.30;99.90
13682;DHT22;6913;49.892;7.936;2022-12-07T01:50:44;2.30;99.90
13682;DHT22;6913;49.892;7.936;2022-12-07T01:53:12;2.30;99.90
13682;DHT22;6913;49.892;7.936;2022-12-07T01:55:42;2.40;99.90
13682;DHT22;6913;49.892;7.936;2022-12-07T01:58:11;2.40;99.90
13682;DHT22;6913;49.892;7.936;2022-12-07T02:00:39;2.30;99.90
13682;DHT22;6913;49.892;7.936;2022-12-07T02:03:08;2.20;99.90
13682;DHT22;6913;49.892;7.936;2022-12-07T02:05:40;2.30;99.90
13682;DHT22;6913;49.892;7.936;2022-12-07T02:08:08;2.40;99.90
13682;DHT22;6913;49.892;7.936;2022-12-07T02:10:35;2.40;99.90
13682;DHT22;6913;49.892;7.936;2022-12-07T02:13:06;2.30;99.90
13682;DHT22;6913;49.892;7.936;2022-12-07T02:15:45;2.40;99.90
13682;DHT22;6913;49.892;7.936;2022-12-07T02:18:22;2.30;99.90
13682;DHT22;6913;49.892;7.936;2022-12-07T02:20:56;2.30;99.90
13682;DHT22;6913;49.892;7.936;2022-12-07T02:23:51;2.40;99.90
13682;DHT22;6913;49.892;7.936;2022-12-07T02:29:27;2.30;99.90
13682;DHT22;6913;49.892;7.936;2022-12-07T02:32:00;2.30;99.90
13682;DHT22;6913;49.892;7.936;2022-12-07T02:34:48;2.30;99.90
13682;DHT22;6913;49.892;7.936;2022-12-07T02:37:25;2.40;99.90
13682;DHT22;6913;49.892;7.936;2022-12-07T02:39:57;2.40;99.90
13682;DHT22;6913;49.892;7.936;2022-12-07T02:42:27;2.40;99.90
13682;DHT22;6913;49.892;7.936;2022-12-07T02:44:59;2.50;99.90
13682;DHT22;6913;49.892;7.936;2022-12-07T02:47:28;2.50;99.90
13682;DHT22;6913;49.892;7.936;2022-12-07T02:49:56;2.60;99.90
13682;DHT22;6913;49.892;7.936;2022-12-07T02:52:23;2.60;99.90
13682;DHT22;6913;49.892;7.936;2022-12-07T02:54:49;2.60;99.90
13682;DHT22;6913;49.892;7.936;2022-12-07T02:57:31;2.70;99.90
13682;DHT22;6913;49.892;7.936;2022-12-07T03:00:04;2.70;99.90
13682;DHT22;6913;49.892;7.936;2022-12-07T03:02:38;2.80;99.90
13682;DHT22;6913;49.892;7.936;2022-12-07T03:05:15;2.90;99.90
13682;DHT22;6913;49.892;7.936;2022-12-07T03:07:53;3.00;99.90
13682;DHT22;6913;49.892;7.936;2022-12-07T03:10:26;3.00;99.90
13682;DHT22;6913;49.892;7.936;2022-12-07T03:13:01;3.10;99.90
13682;DHT22;6913;49.892;7.936;2022-12-07T03:15:33;3.20;99.90
13682;DHT22;6913;49.892;7.936;2022-12-07T03:18:03;3.30;99.90
13682;DHT22;6913;49.892;7.936;2022-12-07T03:20:31;3.40;99.90
13682;DHT22;6913;49.892;7.936;2022-12-07T03:22:59;3.40;99.90
13682;DHT22;6913;49.892;7.936;2022-12-07T03:25:27;3.50;99.90
13682;DHT22;6913;49.892;7.936;2022-12-07T03:27:57;3.50;99.90
13682;DHT22;6913;49.892;7.936;2022-12-07T03:30:28;3.60;99.90
13682;DHT22;6913;49.892;7.936;2022-12-07T03:33:01;3.60;99.90
13682;DHT22;6913;49.892;7.936;2022-12-07T03:35:33;3.60;99.90
13682;DHT22;6913;49.892;7.936;2022-12-07T03:38:07;3.60;99.90
13682;DHT22;6913;49.892;7.936;2022-12-07T03:40:40;3.70;99.90
13682;DHT22;6913;49.892;7.936;2022-12-07T03:43:10;3.70;99.90
13682;DHT22;6913;49.892;7.936;2022-12-07T03:45:40;3.70;99.90
13682;DHT22;6913;49.892;7.936;2022-12-07T03:48:15;3.70;99.90
13682;DHT22;6913;49.892;7.936;2022-12-07T03:50:50;3.60;99.90
13682;DHT22;6913;49.892;7.936;2022-12-07T03:53:22;3.70;99.90
13682;DHT22;6913;49.892;7.936;2022-12-07T03:55:51;3.70;99.90
13682;DHT22;6913;49.892;7.936;2022-12-07T03:58:20;3.70;99.90
13682;DHT22;6913;49.892;7.936;2022-12-07T04:00:49;3.70;99.90
13682;DHT22;6913;49.892;7.936;2022-12-07T04:03:17;3.70;99.90
13682;DHT22;6913;49.892;7.936;2022-12-07T04:05:44;3.80;99.90
13682;DHT22;6913;49.892;7.936;2022-12-07T04:08:11;3.80;99.90
13682;DHT22;6913;49.892;7.936;2022-12-07T04:10:38;3.80;99.90
13682;DHT22;6913;49.892;7.936;2022-12-07T04:13:05;3.80;99.90
13682;DHT22;6913;49.892;7.936;2022-12-07T04:15:32;3.80;99.90
13682;DHT22;6913;49.892;7.936;2022-12-07T04:17:58;3.90;99.90
13682;DHT22;6913;49.892;7.936;2022-12-07T04:20:27;3.90;99.90
13682;DHT22;6913;49.892;7.936;2022-12-07T04:22:53;4.00;99.90
13682;DHT22;6913;49.892;7.936;2022-12-07T04:25:20;4.00;99.90
13682;DHT22;6913;49.892;7.936;2022-12-07T04:27:47;4.00;99.90
13682;DHT22;6913;49.892;7.936;2022-12-07T04:30:14;4.00;99.90
13682;DHT22;6913;49.892;7.936;2022-12-07T04:32:41;4.00;99.90
13682;DHT22;6913;49.892;7.936;2022-12-07T04:35:08;4.00;99.90
13682;DHT22;6913;49.892;7.936;2022-12-07T04:37:37;4.00;99.90
13682;DHT22;6913;49.892;7.936;2022-12-07T04:40:06;3.90;99.90
13682;DHT22;6913;49.892;7.936;2022-12-07T04:42:34;3.90;99.90
13682;DHT22;6913;49.892;7.936;2022-12-07T04:45:01;3.90;99.90
13682;DHT22;6913;49.892;7.936;2022-12-07T04:47:28;4.20;99.90
13682;DHT22;6913;49.892;7.936;2022-12-07T04:49:54;3.80;99.90
13682;DHT22;6913;49.892;7.936;2022-12-07T04:52:21;3.80;99.90
13682;DHT22;6913;49.892;7.936;2022-12-07T04:54:49;3.80;99.90
13682;DHT22;6913;49.892;7.936;2022-12-07T04:57:16;3.80;99.90
13682;DHT22;6913;49.892;7.936;2022-12-07T04:59:43;3.90;99.90
13682;DHT22;6913;49.892;7.936;2022-12-07T05:02:10;3.90;99.90
13682;DHT22;6913;49.892;7.936;2022-12-07T05:04:36;3.90;99.90
13682;DHT22;6913;49.892;7.936;2022-12-07T05:07:03;3.80;99.90
13682;DHT22;6913;49.892;7.936;2022-12-07T05:09:30;3.80;99.90
13682;DHT22;6913;49.892;7.936;2022-12-07T05:11:58;3.80;99.90
13682;DHT22;6913;49.892;7.936;2022-12-07T05:14:25;3.80;99.90
13682;DHT22;6913;49.892;7.936;2022-12-07T05:16:52;3.80;99.90
13682;DHT22;6913;49.892;7.936;2022-12-07T05:19:19;3.90;99.90
13682;DHT22;6913;49.892;7.936;2022-12-07T05:21:47;3.80;99.90
13682;DHT22;6913;49.892;7.936;2022-12-07T05:24:15;3.80;99.90
13682;DHT22;6913;49.892;7.936;2022-12-07T05:26:43;3.80;99.90
13682;DHT22;6913;49.892;7.936;2022-12-07T05:29:13;3.80;99.90
13682;DHT22;6913;49.892;7.936;2022-12-07T05:31:40;3.90;99.90
13682;DHT22;6913;49.892;7.936;2022-12-07T05:34:07;3.90;99.90
13682;DHT22;6913;49.892;7.936;2022-12-07T05:36:34;3.80;99.90
13682;DHT22;6913;49.892;7.936;2022-12-07T05:39:01;3.90;99.90
13682;DHT22;6913;49.892;7.936;2022-12-07T05:41:27;3.90;99.90
13682;DHT22;6913;49.892;7.936;2022-12-07T05:44:13;4.10;99.90
13682;DHT22;6913;49.892;7.936;2022-12-07T05:46:40;3.90;99.90
13682;DHT22;6913;49.892;7.936;2022-12-07T05:49:07;3.90;99.90
13682;DHT22;6913;49.892;7.936;2022-12-07T05:51:34;3.90;99.90
13682;DHT22;6913;49.892;7.936;2022-12-07T05:54:00;3.90;99.90
13682;DHT22;6913;49.892;7.936;2022-12-07T05:56:27;3.90;99.90
13682;DHT22;6913;49.892;7.936;2022-12-07T05:58:54;3.90;99.90
13682;DHT22;6913;49.892;7.936;2022-12-07T06:01:40;3.90;99.90
13682;DHT22;6913;49.892;7.936;2022-12-07T06:04:07;3.90;99.90
13682;DHT22;6913;49.892;7.936;2022-12-07T06:06:34;3.90;99.90
13682;DHT22;6913;49.892;7.936;2022-12-07T06:09:00;3.90;99.90
13682;DHT22;6913;49.892;7.936;2022-12-07T06:11:27;4.60;99.90
13682;DHT22;6913;49.892;7.936;2022-12-07T06:14:12;3.90;99.90
13682;DHT22;6913;49.892;7.936;2022-12-07T06:16:40;3.90;99.90
13682;DHT22;6913;49.892;7.936;2022-12-07T06:19:07;3.90;99.90
13682;DHT22;6913;49.892;7.936;2022-12-07T06:21:34;3.90;99.90
13682;DHT22;6913;49.892;7.936;2022-12-07T06:24:01;4.00;99.90
13682;DHT22;6913;49.892;7.936;2022-12-07T06:26:28;3.90;99.90
13682;DHT22;6913;49.892;7.936;2022-12-07T06:28:55;4.00;99.90
13682;DHT22;6913;49.892;7.936;2022-12-07T06:31:22;4.00;99.90
13682;DHT22;6913;49.892;7.936;2022-12-07T06:33:50;4.00;99.90
13682;DHT22;6913;49.892;7.936;2022-12-07T06:36:17;3.90;99.90
13682;DHT22;6913;49.892;7.936;2022-12-07T06:38:44;3.90;99.90
13682;DHT22;6913;49.892;7.936;2022-12-07T06:41:10;3.90;99.90
13682;DHT22;6913;49.892;7.936;2022-12-07T06:43:37;3.80;99.90
13682;DHT22;6913;49.892;7.936;2022-12-07T06:46:05;3.80;99.90
13682;DHT22;6913;49.892;7.936;2022-12-07T06:48:32;3.80;99.90
13682;DHT22;6913;49.892;7.936;2022-12-07T06:51:01;3.80;99.90
13682;DHT22;6913;49.892;7.936;2022-12-07T06:53:27;3.70;99.90
13682;DHT22;6913;49.892;7.936;2022-12-07T06:55:54;3.70;99.90
13682;DHT22;6913;49.892;7.936;2022-12-07T06:58:21;3.70;99.90
13682;DHT22;6913;49.892;7.936;2022-12-07T07:00:48;3.80;99.90
13682;DHT22;6913;49.892;7.936;2022-12-07T07:03:15;3.80;99.90
13682;DHT22;6913;49.892;7.936;2022-12-07T07:05:43;3.80;99.90
13682;DHT22;6913;49.892;7.936;2022-12-07T07:08:11;3.90;99.90
13682;DHT22;6913;49.892;7.936;2022-12-07T07:10:38;3.90;99.90
13682;DHT22;6913;49.892;7.936;2022-12-07T07:13:05;3.90;99.90
13682;DHT22;6913;49.892;7.936;2022-12-07T07:15:33;3.90;99.90
13682;DHT22;6913;49.892;7.936;2022-12-07T07:18:00;3.90;99.90
13682;DHT22;6913;49.892;7.936;2022-12-07T07:20:28;3.90;99.90
13682;DHT22;6913;49.892;7.936;2022-12-07T07:22:55;3.80;99.90
13682;DHT22;6913;49.892;7.936;2022-12-07T07:25:24;3.80;99.90
13682;DHT22;6913;49.892;7.936;2022-12-07T07:27:50;3.80;99.90
13682;DHT22;6913;49.892;7.936;2022-12-07T07:30:17;3.80;99.90
13682;DHT22;6913;49.892;7.936;2022-12-07T07:32:44;3.70;99.90
13682;DHT22;6913;49.892;7.936;2022-12-07T07:35:11;3.60;99.90
13682;DHT22;6913;49.892;7.936;2022-12-07T07:37:39;4.50;99.90
13682;DHT22;6913;49.892;7.936;2022-12-07T07:40:07;3.60;99.90
13682;DHT22;6913;49.892;7.936;2022-12-07T07:42:35;3.50;99.90
13682;DHT22;6913;49.892;7.936;2022-12-07T07:45:03;4.60;99.90
13682;DHT22;6913;49.892;7.936;2022-12-07T07:47:30;3.60;99.90
13682;DHT22;6913;49.892;7.936;2022-12-07T07:49:57;3.50;99.90
13682;DHT22;6913;49.892;7.936;2022-12-07T07:52:24;3.60;99.90
13682;DHT22;6913;49.892;7.936;2022-12-07T07:54:50;3.70;99.90
13682;DHT22;6913;49.892;7.936;2022-12-07T07:57:18;3.70;99.90
13682;DHT22;6913;49.892;7.936;2022-12-07T07:59:46;3.70;99.90
13682;DHT22;6913;49.892;7.936;2022-12-07T08:02:14;3.60;99.90
13682;DHT22;6913;49.892;7.936;2022-12-07T08:04:41;3.50;99.90
13682;DHT22;6913;49.892;7.936;2022-12-07T08:07:08;3.60;99.90
13682;DHT22;6913;49.892;7.936;2022-12-07T08:09:35;3.60;99.90
13682;DHT22;6913;49.892;7.936;2022-12-07T08:12:03;3.60;99.90
13682;DHT22;6913;49.892;7.936;2022-12-07T08:14:33;3.70;99.90
13682;DHT22;6913;49.892;7.936;2022-12-07T08:17:01;3.80;99.90
13682;DHT22;6913;49.892;7.936;2022-12-07T08:19:28;3.60;99.90
13682;DHT22;6913;49.892;7.936;2022-12-07T08:21:55;3.60;99.90
13682;DHT22;6913;49.892;7.936;2022-12-07T08:24:23;3.60;99.90
13682;DHT22;6913;49.892;7.936;2022-12-07T08:26:50;3.60;99.90
13682;DHT22;6913;49.892;7.936;2022-12-07T08:29:17;3.60;99.90
13682;DHT22;6913;49.892;7.936;2022-12-07T08:31:44;3.80;99.90
13682;DHT22;6913;49.892;7.936;2022-12-07T08:34:13;3.70;99.90
13682;DHT22;6913;49.892;7.936;2022-12-07T08:36:40;3.90;99.90
13682;DHT22;6913;49.892;7.936;2022-12-07T08:39:07;4.80;99.90
13682;DHT22;6913;49.892;7.936;2022-12-07T08:41:33;5.00;99.90
13682;DHT22;6913;49.892;7.936;2022-12-07T08:44:00;5.60;99.90
13682;DHT22;6913;49.892;7.936;2022-12-07T08:46:30;5.80;99.90
13682;DHT22;6913;49.892;7.936;2022-12-07T08:49:03;5.80;99.90
13682;DHT22;6913;49.892;7.936;2022-12-07T08:51:32;5.70;99.90
13682;DHT22;6913;49.892;7.936;2022-12-07T08:54:01;5.60;99.90
13682;DHT22;6913;49.892;7.936;2022-12-07T08:56:29;5.50;99.90
13682;DHT22;6913;49.892;7.936;2022-12-07T08:58:57;5.50;99.90
13682;DHT22;6913;49.892;7.936;2022-12-07T09:01:24;5.50;99.90
13682;DHT22;6913;49.892;7.936;2022-12-07T09:03:51;5.60;99.90
13682;DHT22;6913;49.892;7.936;2022-12-07T09:06:18;5.60;99.90
13682;DHT22;6913;49.892;7.936;2022-12-07T09:08:50;5.50;99.90
13682;DHT22;6913;49.892;7.936;2022-12-07T09:11:18;5.50;99.90
13682;DHT22;6913;49.892;7.936;2022-12-07T09:13:44;5.50;99.90
13682;DHT22;6913;49.892;7.936;2022-12-07T09:16:11;5.50;99.90
13682;DHT22;6913;49.892;7.936;2022-12-07T09:18:38;5.50;99.90
13682;DHT22;6913;49.892;7.936;2022-12-07T09:21:05;5.50;99.90
13682;DHT22;6913;49.892;7.936;2022-12-07T09:23:32;5.60;99.90
13682;DHT22;6913;49.892;7.936;2022-12-07T09:26:01;5.70;99.90
13682;DHT22;6913;49.892;7.936;2022-12-07T09:28:28;5.90;99.90
13682;DHT22;6913;49.892;7.936;2022-12-07T09:30:54;6.00;99.90
13682;DHT22;6913;49.892;7.936;2022-12-07T09:33:21;6.70;99.90
13682;DHT22;6913;49.892;7.936;2022-12-07T09:35:50;6.60;99.90
13682;DHT22;6913;49.892;7.936;2022-12-07T09:38:19;6.90;99.90
13682;DHT22;6913;49.892;7.936;2022-12-07T09:40:46;7.10;99.90
13682;DHT22;6913;49.892;7.936;2022-12-07T09:43:18;7.20;99.90
13682;DHT22;6913;49.892;7.936;2022-12-07T09:45:47;7.50;99.90
13682;DHT22;6913;49.892;7.936;2022-12-07T09:48:17;7.70;99.90
13682;DHT22;6913;49.892;7.936;2022-12-07T09:50:46;8.10;99.90
13682;DHT22;6913;49.892;7.936;2022-12-07T09:53:17;8.10;99.90
13682;DHT22;6913;49.892;7.936;2022-12-07T09:55:45;8.10;99.90
13682;DHT22;6913;49.892;7.936;2022-12-07T09:58:19;8.10;99.90
13682;DHT22;6913;49.892;7.936;2022-12-07T10:00:47;8.50;99.90
13682;DHT22;6913;49.892;7.936;2022-12-07T10:03:13;8.40;99.90
13682;DHT22;6913;49.892;7.936;2022-12-07T10:05:43;8.50;99.90
13682;DHT22;6913;49.892;7.936;2022-12-07T10:08:11;8.90;99.90
13682;DHT22;6913;49.892;7.936;2022-12-07T10:10:38;8.80;99.90
13682;DHT22;6913;49.892;7.936;2022-12-07T10:13:08;9.00;99.90
13682;DHT22;6913;49.892;7.936;2022-12-07T10:15:52;8.90;99.90
13682;DHT22;6913;49.892;7.936;2022-12-07T10:18:25;8.40;99.90
13682;DHT22;6913;49.892;7.936;2022-12-07T10:21:02;8.30;99.90
13682;DHT22;6913;49.892;7.936;2022-12-07T10:23:29;8.90;99.90
13682;DHT22;6913;49.892;7.936;2022-12-07T10:25:56;8.00;99.90
13682;DHT22;6913;49.892;7.936;2022-12-07T10:28:23;7.80;99.90
13682;DHT22;6913;49.892;7.936;2022-12-07T10:30:55;7.60;99.90
13682;DHT22;6913;49.892;7.936;2022-12-07T10:33:30;7.60;99.90
13682;DHT22;6913;49.892;7.936;2022-12-07T10:35:57;7.60;99.90
13682;DHT22;6913;49.892;7.936;2022-12-07T10:38:25;8.30;99.90
13682;DHT22;6913;49.892;7.936;2022-12-07T10:41:03;7.90;99.90
13682;DHT22;6913;49.892;7.936;2022-12-07T10:43:30;8.10;99.90
13682;DHT22;6913;49.892;7.936;2022-12-07T10:49:10;8.00;99.90
13682;DHT22;6913;49.892;7.936;2022-12-07T10:51:45;8.00;99.90
13682;DHT22;6913;49.892;7.936;2022-12-07T10:54:18;7.80;99.90
13682;DHT22;6913;49.892;7.936;2022-12-07T10:57:05;8.70;99.90
13682;DHT22;6913;49.892;7.936;2022-12-07T10:59:58;7.80;99.90
13682;DHT22;6913;49.892;7.936;2022-12-07T11:02:38;7.80;99.90
13682;DHT22;6913;49.892;7.936;2022-12-07T11:05:18;7.80;99.90
13682;DHT22;6913;49.892;7.936;2022-12-07T11:07:54;7.90;99.90
13682;DHT22;6913;49.892;7.936;2022-12-07T11:10:28;7.70;99.90
13682;DHT22;6913;49.892;7.936;2022-12-07T11:13:22;7.60;99.90
13682;DHT22;6913;49.892;7.936;2022-12-07T11:16:08;7.70;99.90
13682;DHT22;6913;49.892;7.936;2022-12-07T11:18:48;7.80;99.90
13682;DHT22;6913;49.892;7.936;2022-12-07T11:21:24;7.80;99.90
13682;DHT22;6913;49.892;7.936;2022-12-07T11:23:59;7.80;99.90
13682;DHT22;6913;49.892;7.936;2022-12-07T11:26:39;7.70;99.90
13682;DHT22;6913;49.892;7.936;2022-12-07T11:29:30;7.70;99.90
13682;DHT22;6913;49.892;7.936;2022-12-07T11:32:05;7.80;99.90
13682;DHT22;6913;49.892;7.936;2022-12-07T11:34:42;7.70;99.90
13682;DHT22;6913;49.892;7.936;2022-12-07T11:37:18;7.70;99.90
13682;DHT22;6913;49.892;7.936;2022-12-07T11:39:49;7.80;99.90
13682;DHT22;6913;49.892;7.936;2022-12-07T11:42:21;9.10;99.90
13682;DHT22;6913;49.892;7.936;2022-12-07T11:44:53;8.00;99.90
13682;DHT22;6913;49.892;7.936;2022-12-07T11:47:27;7.90;99.90
13682;DHT22;6913;49.892;7.936;2022-12-07T11:49:58;8.10;99.90
13682;DHT22;6913;49.892;7.936;2022-12-07T11:52:43;7.50;99.90
13682;DHT22;6913;49.892;7.936;2022-12-07T11:55:18;7.70;99.90
13682;DHT22;6913;49.892;7.936;2022-12-07T11:57:51;7.50;99.90
13682;DHT22;6913;49.892;7.936;2022-12-07T12:00:19;7.30;99.90
13682;DHT22;6913;49.892;7.936;2022-12-07T12:02:49;7.40;99.90
13682;DHT22;6913;49.892;7.936;2022-12-07T12:05:19;7.40;99.90
13682;DHT22;6913;49.892;7.936;2022-12-07T12:07:53;7.50;99.90
13682;DHT22;6913;49.892;7.936;2022-12-07T12:10:27;7.50;99.90
13682;DHT22;6913;49.892;7.936;2022-12-07T12:13:17;7.50;99.90
13682;DHT22;6913;49.892;7.936;2022-12-07T12:16:01;7.40;99.90
13682;DHT22;6913;49.892;7.936;2022-12-07T12:21:27;7.40;99.90
13682;DHT22;6913;49.892;7.936;2022-12-07T12:23:59;7.30;99.90
13682;DHT22;6913;49.892;7.936;2022-12-07T12:26:29;7.20;99.90
13682;DHT22;6913;49.892;7.936;2022-12-07T12:28:58;7.20;99.90
13682;DHT22;6913;49.892;7.936;2022-12-07T12:31:34;7.20;99.90
13682;DHT22;6913;49.892;7.936;2022-12-07T12:34:04;7.20;99.90
13682;DHT22;6913;49.892;7.936;2022-12-07T12:36:45;7.40;99.90
13682;DHT22;6913;49.892;7.936;2022-12-07T12:39:16;7.40;99.90
13682;DHT22;6913;49.892;7.936;2022-12-07T12:41:58;7.50;99.90
13682;DHT22;6913;49.892;7.936;2022-12-07T12:45:17;7.80;99.90
13682;DHT22;6913;49.892;7.936;2022-12-07T12:48:09;7.20;99.90
13682;DHT22;6913;49.892;7.936;2022-12-07T12:54:18;7.80;99.90
13682;DHT22;6913;49.892;7.936;2022-12-07T12:56:51;7.80;99.90
13682;DHT22;6913;49.892;7.936;2022-12-07T12:59:25;7.90;99.90
13682;DHT22;6913;49.892;7.936;2022-12-07T13:01:56;8.00;99.90
13682;DHT22;6913;49.892;7.936;2022-12-07T13:04:48;8.00;99.90
13682;DHT22;6913;49.892;7.936;2022-12-07T13:07:55;7.80;99.90
13682;DHT22;6913;49.892;7.936;2022-12-07T13:10:48;7.80;99.90
13682;DHT22;6913;49.892;7.936;2022-12-07T13:13:32;7.70;99.90
13682;DHT22;6913;49.892;7.936;2022-12-07T13:22:48;7.40;99.90
13682;DHT22;6913;49.892;7.936;2022-12-07T13:25:21;7.60;99.90
13682;DHT22;6913;49.892;7.936;2022-12-07T13:27:57;7.40;99.90
13682;DHT22;6913;49.892;7.936;2022-12-07T13:30:24;7.30;99.90
13682;DHT22;6913;49.892;7.936;2022-12-07T13:32:53;7.50;99.90
13682;DHT22;6913;49.892;7.936;2022-12-07T13:35:31;7.60;99.90
13682;DHT22;6913;49.892;7.936;2022-12-07T13:37:59;7.60;99.90
13682;DHT22;6913;49.892;7.936;2022-12-07T13:40:27;7.60;99.90
13682;DHT22;6913;49.892;7.936;2022-12-07T13:43:00;7.60;99.90
13682;DHT22;6913;49.892;7.936;2022-12-07T13:45:28;7.50;99.90
13682;DHT22;6913;49.892;7.936;2022-12-07T13:48:15;7.50;99.90
13682;DHT22;6913;49.892;7.936;2022-12-07T13:50:42;7.30;99.90
13682;DHT22;6913;49.892;7.936;2022-12-07T13:53:12;7.90;99.90
13682;DHT22;6913;49.892;7.936;2022-12-07T13:55:45;7.80;99.90
13682;DHT22;6913;49.892;7.936;2022-12-07T13:58:14;7.20;99.90
13682;DHT22;6913;49.892;7.936;2022-12-07T14:00:41;7.50;99.90
13682;DHT22;6913;49.892;7.936;2022-12-07T14:03:28;7.20;99.90
13682;DHT22;6913;49.892;7.936;2022-12-07T14:06:25;7.20;99.90
13682;DHT22;6913;49.892;7.936;2022-12-07T14:09:16;7.20;99.90
13682;DHT22;6913;49.892;7.936;2022-12-07T14:11:45;7.20;99.90
13682;DHT22;6913;49.892;7.936;2022-12-07T14:14:17;7.20;99.90
13682;DHT22;6913;49.892;7.936;2022-12-07T14:16:56;7.10;99.90
13682;DHT22;6913;49.892;7.936;2022-12-07T14:19:45;7.60;99.90
13682;DHT22;6913;49.892;7.936;2022-12-07T14:22:28;7.00;99.90
13682;DHT22;6913;49.892;7.936;2022-12-07T14:25:00;6.90;99.90
13682;DHT22;6913;49.892;7.936;2022-12-07T14:27:32;7.20;99.90
13682;DHT22;6913;49.892;7.936;2022-12-07T14:30:04;7.70;99.90
13682;DHT22;6913;49.892;7.936;2022-12-07T14:32:35;6.80;99.90
13682;DHT22;6913;49.892;7.936;2022-12-07T14:35:08;6.80;99.90
13682;DHT22;6913;49.892;7.936;2022-12-07T14:37:36;6.80;99.90
13682;DHT22;6913;49.892;7.936;2022-12-07T14:40:05;6.70;99.90
13682;DHT22;6913;49.892;7.936;2022-12-07T14:42:33;6.70;99.90
13682;DHT22;6913;49.892;7.936;2022-12-07T14:45:01;7.10;99.90
13682;DHT22;6913;49.892;7.936;2022-12-07T14:47:29;6.70;99.90
13682;DHT22;6913;49.892;7.936;2022-12-07T14:49:56;6.80;99.90
13682;DHT22;6913;49.892;7.936;2022-12-07T14:52:24;6.70;99.90
13682;DHT22;6913;49.892;7.936;2022-12-07T14:54:53;6.70;99.90
13682;DHT22;6913;49.892;7.936;2022-12-07T14:57:20;6.60;99.90
13682;DHT22;6913;49.892;7.936;2022-12-07T14:59:47;7.00;99.90
13682;DHT22;6913;49.892;7.936;2022-12-07T15:02:14;6.60;99.90
13682;DHT22;6913;49.892;7.936;2022-12-07T15:04:42;6.40;99.90
13682;DHT22;6913;49.892;7.936;2022-12-07T15:07:15;6.40;99.90
13682;DHT22;6913;49.892;7.936;2022-12-07T15:09:44;6.40;99.90
13682;DHT22;6913;49.892;7.936;2022-12-07T15:12:11;7.20;99.90
13682;DHT22;6913;49.892;7.936;2022-12-07T15:14:38;6.40;99.90
13682;DHT22;6913;49.892;7.936;2022-12-07T15:17:05;6.40;99.90
13682;DHT22;6913;49.892;7.936;2022-12-07T15:19:32;6.20;99.90
13682;DHT22;6913;49.892;7.936;2022-12-07T15:22:00;6.10;99.90
13682;DHT22;6913;49.892;7.936;2022-12-07T15:24:27;6.10;99.90
13682;DHT22;6913;49.892;7.936;2022-12-07T15:26:54;6.10;99.90
13682;DHT22;6913;49.892;7.936;2022-12-07T15:29:21;6.00;99.90
13682;DHT22;6913;49.892;7.936;2022-12-07T15:31:48;5.90;99.90
13682;DHT22;6913;49.892;7.936;2022-12-07T15:34:15;6.10;99.90
13682;DHT22;6913;49.892;7.936;2022-12-07T15:36:42;5.70;99.90
13682;DHT22;6913;49.892;7.936;2022-12-07T15:39:11;5.70;99.90
13682;DHT22;6913;49.892;7.936;2022-12-07T15:41:38;5.60;99.90
13682;DHT22;6913;49.892;7.936;2022-12-07T15:44:05;5.50;99.90
13682;DHT22;6913;49.892;7.936;2022-12-07T15:46:55;6.10;99.90
13682;DHT22;6913;49.892;7.936;2022-12-07T15:49:22;5.60;99.90
13682;DHT22;6913;49.892;7.936;2022-12-07T15:51:48;5.50;99.90
13682;DHT22;6913;49.892;7.936;2022-12-07T15:54:19;5.40;99.90
13682;DHT22;6913;49.892;7.936;2022-12-07T15:56:46;5.40;99.90
13682;DHT22;6913;49.892;7.936;2022-12-07T15:59:14;5.30;99.90
13682;DHT22;6913;49.892;7.936;2022-12-07T16:01:40;5.40;99.90
13682;DHT22;6913;49.892;7.936;2022-12-07T16:04:07;5.30;99.90
13682;DHT22;6913;49.892;7.936;2022-12-07T16:06:34;5.30;99.90
13682;DHT22;6913;49.892;7.936;2022-12-07T16:09:01;5.70;99.90
13682;DHT22;6913;49.892;7.936;2022-12-07T16:11:30;5.30;99.90
13682;DHT22;6913;49.892;7.936;2022-12-07T16:13:57;5.30;99.90
13682;DHT22;6913;49.892;7.936;2022-12-07T16:16:24;5.30;99.90
13682;DHT22;6913;49.892;7.936;2022-12-07T16:18:51;5.20;99.90
13682;DHT22;6913;49.892;7.936;2022-12-07T16:21:18;5.10;99.90
13682;DHT22;6913;49.892;7.936;2022-12-07T16:23:45;5.10;99.90
13682;DHT22;6913;49.892;7.936;2022-12-07T16:26:14;5.00;99.90
13682;DHT22;6913;49.892;7.936;2022-12-07T16:28:43;5.00;99.90
13682;DHT22;6913;49.892;7.936;2022-12-07T16:31:11;5.10;99.90
13682;DHT22;6913;49.892;7.936;2022-12-07T16:33:40;5.10;99.90
13682;DHT22;6913;49.892;7.936;2022-12-07T16:36:09;5.40;99.90
13682;DHT22;6913;49.892;7.936;2022-12-07T16:38:37;5.00;99.90
13682;DHT22;6913;49.892;7.936;2022-12-07T16:41:07;5.00;99.90
13682;DHT22;6913;49.892;7.936;2022-12-07T16:43:34;5.10;99.90
13682;DHT22;6913;49.892;7.936;2022-12-07T16:46:03;5.80;99.90